Time;durP1;ratioP1;P1;durP2;ratioP2;P2;SDS_P1;SDS_P2;PMS_P1;PMS_P2;Temp;Humidity;BMP_temperature;BMP_pressure;BME280_temperature;BME280_humidity;BME280_pressure;Samples;Min_cycle;Max_cycle;Signal;HPM_P1;HPM_P2
2022/10/04 00:02:28;;;;;;;34.53;32.45;;;;;;;11.53;100.00;101051.63;6098050;23;20115;-83
2022/10/04 00:05:02;;;;;;;32.30;30.40;;;;;;;11.76;100.00;101059.22;6098286;23;20314;-82
2022/10/04 00:07:32;;;;;;;29.80;28.15;;;;;;;11.69;100.00;101059.22;6098349;23;20023;-83
2022/10/04 00:10:03;;;;;;;33.33;31.45;;;;;;;11.66;100.00;101064.94;6098448;23;20022;-83
2022/10/04 00:12:37;;;;;;;31.48;29.30;;;;;;;11.35;100.00;101066.34;6098268;23;20022;-83
2022/10/04 00:15:18;;;;;;;30.15;28.30;;;;;;;11.26;100.00;101078.22;6098172;23;20030;-83
2022/10/04 00:17:59;;;;;;;33.88;31.70;;;;;;;11.80;100.00;101068.41;6098413;23;20058;-84
2022/10/04 00:21:04;;;;;;;33.63;31.73;;;;;;;11.31;100.00;101070.44;6098081;23;20085;-83
2022/10/04 00:23:46;;;;;;;32.63;30.55;;;;;;;11.39;100.00;101064.91;6098125;23;20518;-82
2022/10/04 00:27:04;;;;;;;32.40;30.45;;;;;;;11.19;100.00;101067.53;6098435;23;20061;-84
2022/10/04 00:29:32;;;;;;;30.70;28.55;;;;;;;11.51;100.00;101070.47;6029767;23;20018;-82
2022/10/04 00:32:26;;;;;;;31.77;29.88;;;;;;;11.30;100.00;101071.47;6098071;23;20086;-82
2022/10/04 00:35:43;;;;;;;30.83;28.92;;;;;;;11.02;100.00;101068.13;6098107;23;20046;-82
2022/10/04 00:38:15;;;;;;;30.88;29.10;;;;;;;11.17;100.00;101058.16;6097339;23;20089;-82
2022/10/04 00:40:46;;;;;;;32.78;30.60;;;;;;;11.19;100.00;101064.06;6098381;23;20385;-83
2022/10/04 00:43:19;;;;;;;32.63;30.63;;;;;;;11.24;100.00;101064.28;6097868;23;20343;-83
2022/10/04 00:45:51;;;;;;;31.77;29.70;;;;;;;11.03;100.00;101061.78;6097784;23;20030;-83
2022/10/04 00:48:39;;;;;;;39.30;37.17;;;;;;;10.84;100.00;101068.69;6097556;23;20448;-83
2022/10/04 00:51:24;;;;;;;37.95;35.75;;;;;;;10.98;100.00;101078.31;6097779;23;20022;-82
2022/10/04 00:54:02;;;;;;;34.47;32.28;;;;;;;11.18;100.00;101073.06;6098002;23;20019;-83
2022/10/04 00:56:37;;;;;;;34.10;32.00;;;;;;;11.00;100.00;101070.97;6097796;23;20433;-83
2022/10/04 00:59:18;;;;;;;31.83;29.95;;;;;;;10.88;100.00;101070.72;6098078;23;20033;-83
2022/10/04 01:01:49;;;;;;;32.70;30.58;;;;;;;10.88;100.00;101062.75;6097801;23;20022;-83
2022/10/04 01:04:30;;;;;;;35.17;33.17;;;;;;;10.58;100.00;101062.22;6098203;23;20045;-82
2022/10/04 01:07:00;;;;;;;33.08;31.02;;;;;;;10.74;100.00;101061.06;6097484;23;20455;-83
2022/10/04 01:09:27;;;;;;;32.20;30.25;;;;;;;10.55;100.00;101060.78;6097762;23;20097;-83
2022/10/04 01:12:02;;;;;;;32.85;30.85;;;;;;;10.95;100.00;101054.78;6097749;23;20105;-82
2022/10/04 01:14:41;;;;;;;33.25;31.25;;;;;;;10.66;100.00;101062.06;6097991;23;20400;-82
2022/10/04 01:17:09;;;;;;;32.50;30.30;;;;;;;10.68;100.00;101059.19;6097933;23;20027;-83
2022/10/04 01:19:50;;;;;;;32.47;29.85;;;;;;;11.18;100.00;101067.75;6097555;23;20101;-83
2022/10/04 01:22:37;;;;;;;34.08;32.13;;;;;;;10.93;100.00;101067.47;6097885;23;20018;-83
2022/10/04 01:25:05;;;;;;;34.35;32.22;;;;;;;10.78;100.00;101063.13;6095882;23;20033;-84
2022/10/04 01:27:36;;;;;;;32.25;30.52;;;;;;;11.28;100.00;101073.50;6097593;23;20049;-83
2022/10/04 01:30:08;;;;;;;32.90;31.00;;;;;;;11.12;100.00;101066.72;6097881;23;20076;-84
2022/10/04 01:32:35;;;;;;;33.35;31.55;;;;;;;11.30;100.00;101060.00;6097632;23;20029;-83
2022/10/04 01:35:04;;;;;;;34.10;31.75;;;;;;;10.89;100.00;101058.25;6097235;23;20058;-84
2022/10/04 01:37:33;;;;;;;35.38;33.13;;;;;;;10.65;100.00;101067.56;6096984;23;20519;-83
2022/10/04 01:40:04;;;;;;;33.15;31.15;;;;;;;11.29;100.00;101072.50;6097576;23;20042;-84
2022/10/04 01:42:39;;;;;;;33.83;32.13;;;;;;;10.92;100.00;101061.34;6097284;23;20499;-82
2022/10/04 01:45:12;;;;;;;35.50;33.22;;;;;;;10.56;100.00;101069.59;6097458;23;20033;-82
2022/10/04 01:47:44;;;;;;;36.08;33.90;;;;;;;10.51;100.00;101069.34;6097475;23;20030;-82
2022/10/04 01:50:13;;;;;;;;;;;;;;;10.52;100.00;101078.94;6098108;23;20089;-82
2022/10/04 01:52:46;;;;;;;33.47;31.52;;;;;;;10.77;100.00;101082.75;6097435;23;19928;-82
2022/10/04 01:55:21;;;;;;;;;;;;;;;10.35;100.00;101080.28;6097671;23;20023;-81
2022/10/04 01:57:54;;;;;;;31.95;30.15;;;;;;;10.80;100.00;101073.56;6097523;23;19996;-82
2022/10/04 02:03:10;;;;;;;34.60;32.50;;;;;;;10.70;100.00;101073.94;6066808;23;20030;-82
2022/10/04 02:05:50;;;;;;;32.97;31.02;;;;;;;11.26;100.00;101086.19;6067766;23;20031;-83
2022/10/04 02:08:28;;;;;;;35.20;33.00;;;;;;;10.76;100.00;101089.06;6068099;23;20029;-82
2022/10/04 02:11:06;;;;;;;34.40;32.50;;;;;;;10.81;100.00;101085.03;6068235;23;20019;-85
2022/10/04 02:13:55;;;;;;;37.33;35.22;;;;;;;10.42;100.00;101078.50;6068087;23;20026;-83
2022/10/04 02:16:34;;;;;;;34.17;32.30;;;;;;;10.61;100.00;101087.56;6068021;23;20037;-85
2022/10/04 02:19:21;;;;;;;34.90;32.88;;;;;;;10.54;100.00;101091.03;6067641;23;20018;-82
2022/10/04 02:25:22;;;;;;;33.50;31.25;;;;;;;10.65;100.00;101091.47;6067166;23;20101;-84
2022/10/04 02:27:59;;;;;;;40.90;38.60;;;;;;;10.49;100.00;101092.63;6068300;23;20101;-82
2022/10/04 02:30:28;;;;;;;40.10;37.80;;;;;;;10.65;100.00;101094.13;6068465;23;20022;-82
2022/10/04 02:33:39;;;;;;;36.60;34.25;;;;;;;10.41;100.00;101100.72;6068246;23;20019;-84
2022/10/04 02:48:56;;;;;;;35.53;33.63;;;;;;;10.11;100.00;101127.47;6019475;23;20026;-84
2022/10/04 02:51:45;;;;;;;37.75;35.53;;;;;;;10.16;100.00;101137.50;6067759;23;20027;-86
2022/10/04 02:57:25;;;;;;;36.65;34.55;;;;;;;10.23;100.00;101138.41;6062623;23;20033;-84
2022/10/04 03:00:21;;;;;;;33.17;30.98;;;;;;;10.04;100.00;101148.63;6068322;23;20026;-84
2022/10/04 03:06:48;;;;;;;;;;;;;;;;;;;;;
2022/10/04 03:12:46;;;;;;;33.85;31.98;;;;;;;10.14;100.00;101142.22;6067867;23;20030;-83
2022/10/04 03:15:23;;;;;;;30.85;28.98;;;;;;;10.01;100.00;101141.06;6068097;23;20019;-84
2022/10/04 03:18:07;;;;;;;31.70;29.77;;;;;;;9.97;100.00;101153.09;6067883;23;20031;-84
2022/10/04 03:21:00;;;;;;;33.90;32.08;;;;;;;10.01;100.00;101148.19;6068145;23;20019;-83
2022/10/04 03:24:05;;;;;;;34.05;31.67;;;;;;;9.92;100.00;101142.22;6068180;23;20026;-83
2022/10/04 03:26:45;;;;;;;34.63;32.45;;;;;;;9.77;100.00;101149.41;6068231;23;20397;-83
2022/10/04 03:29:43;;;;;;;35.78;33.75;;;;;;;9.75;100.00;101157.59;6068029;23;20033;-84
2022/10/04 03:32:31;;;;;;;34.20;32.13;;;;;;;9.80;100.00;101149.03;6068802;23;20085;-83
2022/10/04 03:35:37;;;;;;;37.70;35.33;;;;;;;9.69;100.00;101163.66;6070140;23;20023;-83
2022/10/04 03:38:21;;;;;;;34.40;31.63;;;;;;;9.75;100.00;101167.38;6069738;23;20098;-83
2022/10/04 03:41:12;;;;;;;;;;;;;;;;;;;;;
2022/10/04 03:43:51;;;;;;;37.45;35.15;;;;;;;9.91;100.00;101172.41;6069056;23;20097;-83
2022/10/04 03:46:44;;;;;;;33.53;31.42;;;;;;;9.74;100.00;101165.72;6069100;23;20026;-82
2022/10/04 03:49:48;;;;;;;34.22;31.50;;;;;;;9.94;100.00;101168.56;6068691;23;20471;-83
2022/10/04 03:52:40;;;;;;;35.33;33.08;;;;;;;9.97;100.00;101174.31;6069616;23;20030;-82
2022/10/04 03:55:36;;;;;;;46.97;43.25;;;;;;;10.04;100.00;101177.84;6069479;23;20090;-82
2022/10/04 03:58:20;;;;;;;40.83;37.88;;;;;;;10.45;100.00;101184.31;6069302;23;20023;-83
2022/10/04 04:01:01;;;;;;;31.08;29.10;;;;;;;10.17;100.00;101186.94;6065803;23;20028;-82
2022/10/04 04:03:51;;;;;;;33.17;30.88;;;;;;;9.80;100.00;101188.84;6069495;23;20398;-83
2022/10/04 04:06:27;;;;;;;34.67;32.22;;;;;;;9.90;100.00;101183.25;6068393;23;20039;-84
2022/10/04 04:09:00;;;;;;;33.30;31.02;;;;;;;10.09;100.00;101182.59;6069413;23;20381;-83
2022/10/04 04:11:31;;;;;;;32.08;30.00;;;;;;;9.98;100.00;101191.03;6068792;23;20106;-84
2022/10/04 04:14:13;;;;;;;30.95;29.08;;;;;;;9.88;100.00;101201.16;6069528;23;20019;-84
2022/10/04 04:17:20;;;;;;;31.38;29.33;;;;;;;10.08;100.00;101199.53;6069281;23;20448;-83
2022/10/04 04:19:52;;;;;;;33.05;31.05;;;;;;;10.68;100.00;101202.66;6069310;23;20771;-84
2022/10/04 04:22:30;;;;;;;32.45;30.58;;;;;;;10.23;100.00;101197.63;6069385;23;20027;-83
2022/10/04 04:25:01;;;;;;;31.45;29.33;;;;;;;9.84;100.00;101201.53;6069842;23;20029;-83
2022/10/04 04:27:50;;;;;;;31.27;29.17;;;;;;;10.05;100.00;101203.38;6069216;23;20029;-83
2022/10/04 04:30:19;;;;;;;37.85;35.38;;;;;;;10.01;100.00;101211.91;6069380;23;20043;-83
2022/10/04 04:32:55;;;;;;;44.63;41.25;;;;;;;10.09;100.00;101206.47;6069621;23;20015;-85
2022/10/04 04:35:35;;;;;;;43.03;39.95;;;;;;;9.95;100.00;101202.03;6069575;23;20023;-84
2022/10/04 04:41:29;;;;;;;39.13;35.85;;;;;;;10.03;100.00;101209.88;6066463;23;20023;-83
2022/10/04 04:44:04;;;;;;;33.20;31.30;;;;;;;10.16;100.00;101207.34;6069514;23;20027;-84
2022/10/04 04:46:44;;;;;;;31.52;29.63;;;;;;;10.43;100.00;101218.22;6069234;23;20022;-84
2022/10/04 04:49:14;;;;;;;31.63;29.63;;;;;;;10.58;100.00;101215.47;6069640;23;20054;-84
2022/10/04 04:51:55;;;;;;;32.20;30.00;;;;;;;10.46;100.00;101226.59;6069243;23;20029;-83
2022/10/04 04:54:42;;;;;;;31.30;29.50;;;;;;;10.53;100.00;101222.19;6069001;23;20516;-83
2022/10/04 04:57:30;;;;;;;30.60;28.80;;;;;;;10.46;100.00;101237.22;6069382;23;20098;-84
2022/10/04 05:00:22;;;;;;;31.92;30.23;;;;;;;10.46;100.00;101234.56;6069201;23;20027;-83
2022/10/04 05:03:22;;;;;;;34.20;32.17;;;;;;;10.73;100.00;101243.56;6069196;23;20022;-84
2022/10/04 05:05:53;;;;;;;34.83;32.83;;;;;;;10.72;100.00;101238.47;6068849;23;20093;-84
2022/10/04 05:08:27;;;;;;;35.80;33.90;;;;;;;11.07;100.00;101255.22;6068854;23;20026;-86
2022/10/04 05:11:06;;;;;;;31.48;29.67;;;;;;;10.84;100.00;101254.69;6068794;23;20397;-83
2022/10/04 05:13:42;;;;;;;31.30;29.15;;;;;;;10.92;100.00;101265.16;6067981;23;20052;-84
2022/10/04 05:16:41;;;;;;;31.13;29.30;;;;;;;11.13;100.00;101267.72;6066885;23;20093;-84
2022/10/04 05:19:34;;;;;;;30.60;28.90;;;;;;;10.87;100.00;101272.91;6057207;23;20027;-84
2022/10/04 05:22:21;;;;;;;33.83;32.13;;;;;;;11.24;100.00;101277.00;6068009;23;20086;-84
2022/10/04 05:24:57;;;;;;;30.65;28.95;;;;;;;11.16;100.00;101288.59;6067878;23;20393;-83
2022/10/04 05:27:35;;;;;;;33.50;31.60;;;;;;;11.35;100.00;101279.13;6068055;23;20019;-83
2022/10/04 05:30:10;;;;;;;33.25;31.20;;;;;;;11.38;100.00;101281.38;6067910;23;20038;-83
2022/10/04 05:33:04;;;;;;;37.50;34.63;;;;;;;11.81;100.00;101297.09;5990897;23;20038;-84
2022/10/04 05:35:54;;;;;;;37.40;34.88;;;;;;;12.17;100.00;101289.84;6063430;23;20050;-84
2022/10/04 05:38:49;;;;;;;33.85;32.25;;;;;;;12.21;100.00;101286.56;6065638;23;20034;-85
2022/10/04 05:41:27;;;;;;;31.65;30.08;;;;;;;12.13;100.00;101300.06;6066151;23;20023;-83
2022/10/04 05:44:25;;;;;;;32.67;31.02;;;;;;;12.54;100.00;101294.59;6066305;23;20054;-85
2022/10/04 05:46:57;;;;;;;31.48;29.75;;;;;;;11.97;100.00;101301.28;6065817;23;20033;-83
2022/10/04 05:49:37;;;;;;;32.20;30.50;;;;;;;12.61;100.00;101300.72;6065702;23;20033;-85
2022/10/04 05:52:29;;;;;;;35.53;33.83;;;;;;;12.91;100.00;101294.16;6065770;23;20040;-85
2022/10/04 05:55:18;;;;;;;35.85;33.83;;;;;;;12.56;100.00;101302.41;6067798;23;20031;-84
2022/10/04 05:58:19;;;;;;;;;;;;;;;;;;;;;
2022/10/04 06:01:17;;;;;;;32.90;31.20;;;;;;;12.11;100.00;101299.47;6041257;23;20015;-84
2022/10/04 06:04:07;;;;;;;31.23;29.73;;;;;;;11.85;100.00;101319.66;6063635;23;20094;-84
2022/10/04 06:06:49;;;;;;;36.97;34.60;;;;;;;11.28;100.00;101328.75;6068093;23;20103;-86
2022/10/04 06:09:58;;;;;;;37.58;35.60;;;;;;;11.99;100.00;101327.69;6068676;23;20026;-83
2022/10/04 06:13:07;;;;;;;37.13;35.05;;;;;;;12.05;100.00;101334.88;6067706;23;20102;-84
2022/10/04 06:15:57;;;;;;;37.63;35.67;;;;;;;12.12;100.00;101343.69;6067563;23;20026;-85
2022/10/04 06:19:14;;;;;;;37.03;34.83;;;;;;;12.20;100.00;101345.38;6067551;23;20026;-84
2022/10/04 06:22:11;;;;;;;33.10;31.35;;;;;;;12.12;100.00;101346.38;6067912;23;20491;-84
2022/10/04 06:24:50;;;;;;;35.88;33.92;;;;;;;11.59;100.00;101356.75;6068600;23;20034;-85
2022/10/04 06:27:40;;;;;;;37.40;35.33;;;;;;;11.46;100.00;101358.34;6068207;23;20034;-84
2022/10/04 06:30:25;;;;;;;34.45;32.60;;;;;;;11.34;100.00;101349.25;6067926;23;20046;-84
2022/10/04 06:33:24;;;;;;;36.05;33.58;;;;;;;11.63;100.00;101358.03;6067062;23;20026;-84
2022/10/04 06:36:16;;;;;;;35.08;33.10;;;;;;;12.50;100.00;101359.97;5993279;23;20048;-84
2022/10/04 06:39:10;;;;;;;32.83;31.02;;;;;;;12.10;100.00;101362.56;6067600;23;20046;-84
2022/10/04 06:42:19;;;;;;;38.00;35.58;;;;;;;12.82;100.00;101362.88;6067837;23;20026;-84
2022/10/04 06:45:23;;;;;;;33.85;32.05;;;;;;;13.24;100.00;101369.59;6049178;23;20026;-84
2022/10/04 06:48:13;;;;;;;;;;;;;;;14.27;100.00;101363.53;6054464;23;20077;-83
2022/10/04 06:51:12;;;;;;;34.08;32.20;;;;;;;14.70;100.00;101367.38;6067015;23;19988;-83
2022/10/04 06:54:21;;;;;;;31.95;30.20;;;;;;;15.40;100.00;101362.66;6073233;23;20025;-84
2022/10/04 06:57:36;;;;;;;;;;;;;;;;;;;;;
2022/10/04 07:00:49;;;;;;;37.30;35.30;;;;;;;14.11;100.00;101383.53;6009205;23;20031;-85
2022/10/04 07:04:04;;;;;;;;;;;;;;;;;;;;;
2022/10/04 07:07:22;;;;;;;30.70;28.88;;;;;;;13.11;100.00;101380.31;5982150;24;20103;-85
2022/10/04 07:10:11;;;;;;;;;;;;;;;;;;;;;
2022/10/04 07:12:42;;;;;;;30.30;28.52;;;;;;;13.01;100.00;101385.22;5924626;24;20104;-83
2022/10/04 07:15:20;;;;;;;30.48;28.45;;;;;;;13.47;100.00;101389.72;5926034;24;20029;-84
2022/10/04 07:17:54;;;;;;;31.20;29.30;;;;;;;13.63;100.00;101391.94;5954556;23;20027;-85
2022/10/04 07:20:37;;;;;;;31.27;29.58;;;;;;;13.39;100.00;101405.94;6069004;23;20026;-84
2022/10/04 07:23:23;;;;;;;31.27;29.55;;;;;;;13.22;100.00;101401.03;6069360;23;20031;-85
2022/10/04 07:26:18;;;;;;;30.15;28.65;;;;;;;13.37;100.00;101400.00;6069844;23;20051;-85
2022/10/04 07:31:49;;;;;;;30.80;29.20;;;;;;;13.06;100.00;101401.44;5981210;24;20123;-85
2022/10/04 07:34:30;;;;;;;;;;;;;;;;;;;;;
2022/10/04 07:37:19;;;;;;;31.45;29.13;;;;;;;13.92;100.00;101401.31;5978621;24;20099;-83
2022/10/04 07:43:09;;;;;;;34.03;31.02;;;;;;;15.12;100.00;101393.34;5916992;24;20475;-84
2022/10/04 07:45:54;;;;;;;31.80;30.10;;;;;;;14.65;100.00;101400.13;6004069;23;20027;-84
2022/10/04 07:48:26;;;;;;;31.13;29.23;;;;;;;14.86;100.00;101394.41;6037491;23;20031;-83
2022/10/04 07:54:26;;;;;;;30.65;28.85;;;;;;;16.81;100.00;101400.03;6066023;23;20065;-82
2022/10/04 08:00:23;;;;;;;40.90;38.58;;;;;;;16.36;100.00;101395.91;5988855;23;20103;-84
2022/10/04 08:03:21;;;;;;;30.58;28.98;;;;;;;16.50;100.00;101412.63;6007518;23;20031;-83
2022/10/04 08:06:26;;;;;;;;;;;;;;;;;;;;;
2022/10/04 08:09:37;;;;;;;;;;;;;;;;;;;;;
2022/10/04 08:12:34;;;;;;;28.15;26.65;;;;;;;16.24;100.00;101416.47;6061196;23;20113;-82
2022/10/04 08:18:39;;;;;;;30.25;28.60;;;;;;;15.33;100.00;101410.06;6090361;23;20061;-84
2022/10/04 08:21:16;;;;;;;29.63;27.83;;;;;;;16.88;100.00;101422.19;6097117;23;20022;-83
2022/10/04 08:24:09;;;;;;;29.58;27.80;;;;;;;17.54;100.00;101410.31;6097717;23;20019;-83
2022/10/04 08:26:57;;;;;;;30.65;28.65;;;;;;;17.60;100.00;101406.69;6097844;23;20034;-84
2022/10/04 08:29:54;;;;;;;30.65;28.55;;;;;;;18.00;100.00;101410.47;6097503;23;20424;-84
2022/10/04 08:33:08;;;;;;;31.30;29.60;;;;;;;16.66;100.00;101414.66;6079799;23;20030;-83
2022/10/04 08:38:43;;;;;;;33.28;31.08;;;;;;;17.94;100.00;101427.56;6096084;23;20042;-83
2022/10/04 08:41:46;;;;;;;31.05;29.17;;;;;;;19.36;100.00;101412.28;6097533;23;20021;-83
2022/10/04 08:44:55;;;;;;;32.10;30.05;;;;;;;19.33;100.00;101418.19;6096361;23;20055;-84
2022/10/04 08:48:15;;;;;;;31.80;30.10;;;;;;;17.94;100.00;101420.31;6097277;23;20108;-83
2022/10/04 08:51:31;;;;;;;33.67;31.60;;;;;;;18.36;100.00;101420.03;6091826;23;20538;-82
2022/10/04 08:54:39;;;;;;;31.45;29.75;;;;;;;18.19;100.00;101441.53;6097706;23;20022;-83
2022/10/04 08:57:33;;;;;;;31.27;29.27;;;;;;;19.40;100.00;101422.34;6092401;23;20391;-84
2022/10/04 09:00:20;;;;;;;31.58;29.67;;;;;;;19.10;100.00;101422.69;6096857;23;20321;-81
2022/10/04 09:03:25;;;;;;;30.10;28.33;;;;;;;20.12;100.00;101434.91;6095520;23;20022;-83
2022/10/04 09:06:24;;;;;;;30.88;28.83;;;;;;;20.71;94.47;101427.97;6097627;23;20436;-84
2022/10/04 09:09:49;;;;;;;31.00;29.00;;;;;;;19.59;100.00;101419.34;6096743;23;20534;-83
2022/10/04 09:13:06;;;;;;;33.60;31.70;;;;;;;20.36;89.05;101418.41;6096477;23;20058;-83
2022/10/04 09:15:55;;;;;;;31.52;29.50;;;;;;;21.38;97.31;101418.50;6092580;23;20018;-83
2022/10/04 09:19:07;;;;;;;34.42;32.42;;;;;;;19.89;79.30;101419.78;6096986;23;20034;-83
2022/10/04 09:21:53;;;;;;;32.83;30.83;;;;;;;20.23;100.00;101422.31;6037785;23;20030;-82
2022/10/04 09:31:42;;;;;;;32.00;30.20;;;;;;;22.67;62.93;101415.16;6095040;23;20023;-82
2022/10/04 09:34:45;;;;;;;33.55;31.55;;;;;;;21.91;58.01;101428.22;6096708;23;20022;-83
2022/10/04 09:37:42;;;;;;;34.17;32.22;;;;;;;22.64;56.45;101417.31;6068773;23;20014;-83
2022/10/04 09:40:39;;;;;;;33.25;31.45;;;;;;;23.05;52.83;101424.66;6097317;23;20100;-82
2022/10/04 09:43:57;;;;;;;32.95;31.05;;;;;;;23.19;51.55;101419.50;6094477;23;20105;-83
2022/10/04 09:47:00;;;;;;;34.25;32.33;;;;;;;23.01;51.33;101421.69;6096775;23;20030;-81
2022/10/04 09:50:23;;;;;;;33.85;31.95;;;;;;;23.35;58.43;101421.09;6092896;23;20023;-83
2022/10/04 09:53:18;;;;;;;35.67;33.87;;;;;;;24.26;53.04;101416.41;5980729;24;20496;-83
2022/10/04 10:00:22;;;;;;;32.50;30.50;;;;;;;25.35;44.38;101426.16;5981089;23;20027;-83
2022/10/04 10:03:36;;;;;;;33.38;31.48;;;;;;;25.09;44.05;101420.94;6096330;23;20026;-83
2022/10/04 10:06:35;;;;;;;34.88;32.75;;;;;;;24.35;43.13;101414.72;6096129;23;20018;-82
2022/10/04 10:13:38;;;;;;;34.47;32.47;;;;;;;25.11;42.00;101424.19;6096223;23;20504;-83
2022/10/04 10:16:32;;;;;;;33.78;31.88;;;;;;;24.13;45.58;101425.16;5958205;23;20039;-82
2022/10/04 10:19:30;;;;;;;36.30;34.08;;;;;;;23.40;43.34;101414.84;5896467;24;20018;-84
2022/10/04 10:22:30;;;;;;;34.95;32.95;;;;;;;23.94;44.36;101416.88;5979143;23;20462;-84
2022/10/04 10:25:29;;;;;;;34.85;32.95;;;;;;;22.40;46.02;101421.63;6089793;23;20034;-82
2022/10/04 10:28:36;;;;;;;35.67;33.88;;;;;;;22.74;47.20;101416.50;6096182;23;20026;-83
2022/10/04 10:31:26;;;;;;;33.70;31.90;;;;;;;24.42;39.61;101412.53;6096087;23;20109;-83
2022/10/04 10:34:36;;;;;;;33.22;31.42;;;;;;;25.05;40.78;101408.22;6096190;23;20015;-83
2022/10/04 10:37:46;;;;;;;35.83;33.83;;;;;;;24.62;41.78;101413.47;6096491;23;20030;-83
2022/10/04 10:43:52;;;;;;;38.47;36.38;;;;;;;23.63;41.31;101408.81;6096282;23;20054;-81
2022/10/04 10:47:00;;;;;;;36.85;34.75;;;;;;;23.45;45.70;101414.81;6009995;23;20027;-83
2022/10/04 10:49:43;;;;;;;35.92;33.92;;;;;;;23.29;43.16;101414.84;6010922;23;20087;-82
2022/10/04 10:52:55;;;;;;;39.05;36.95;;;;;;;22.78;42.49;101423.00;6098926;23;20530;-82
2022/10/04 10:56:07;;;;;;;40.47;38.23;;;;;;;24.90;41.22;101418.16;6098192;23;20050;-83
2022/10/04 10:59:11;;;;;;;37.33;35.22;;;;;;;23.71;39.98;101412.88;6097907;23;20298;-83
2022/10/04 11:02:17;;;;;;;31.38;29.58;;;;;;;22.08;43.22;101408.25;6054505;23;20379;-82
2022/10/04 11:05:05;;;;;;;32.42;30.15;;;;;;;20.68;47.41;101418.47;6097913;23;20025;-83
2022/10/04 11:08:13;;;;;;;;;;;;;;;;;;;;;
2022/10/04 11:11:09;;;;;;;32.08;30.27;;;;;;;19.59;57.93;101425.56;6097966;23;20030;-83
2022/10/04 11:14:06;;;;;;;37.35;35.15;;;;;;;18.66;67.18;101433.22;6082757;23;20101;-84
2022/10/04 11:17:08;;;;;;;33.10;31.30;;;;;;;19.84;56.72;101425.09;6098132;23;20089;-82
2022/10/04 11:20:23;;;;;;;35.78;33.88;;;;;;;21.87;51.58;101415.47;6098663;23;20042;-84
2022/10/04 11:23:27;;;;;;;34.47;32.58;;;;;;;18.84;54.96;101420.66;6098347;23;20026;-82
2022/10/04 11:26:40;;;;;;;33.58;31.67;;;;;;;21.04;55.55;101435.78;6097560;23;20018;-83
2022/10/04 11:29:28;;;;;;;34.53;32.53;;;;;;;23.54;49.20;101407.75;6088842;23;20038;-83
2022/10/04 11:32:46;;;;;;;34.67;32.58;;;;;;;19.45;53.43;101417.03;6097654;23;20447;-82
2022/10/04 11:36:04;;;;;;;34.83;32.83;;;;;;;23.73;49.67;101414.22;6097354;23;20042;-82
2022/10/04 11:39:04;;;;;;;34.63;32.72;;;;;;;21.34;49.66;101425.47;6097660;23;20105;-83
2022/10/04 11:41:54;;;;;;;34.53;32.63;;;;;;;20.57;60.26;101423.00;6098020;23;20356;-82
2022/10/04 11:45:03;;;;;;;34.15;31.95;;;;;;;21.45;53.67;101425.31;6097844;23;20101;-82
2022/10/04 11:47:52;;;;;;;35.60;33.50;;;;;;;20.44;57.83;101434.16;6098020;23;20451;-83
2022/10/04 11:50:44;;;;;;;35.10;33.10;;;;;;;22.41;52.93;101431.38;6097610;23;20037;-85
2022/10/04 11:53:57;;;;;;;37.83;35.72;;;;;;;23.62;50.92;101425.34;6097989;23;20367;-83
2022/10/04 11:57:01;;;;;;;34.25;32.25;;;;;;;21.86;53.62;101427.38;6043839;23;20023;-83
2022/10/04 11:59:45;;;;;;;35.05;33.00;;;;;;;21.70;54.98;101427.31;6097261;23;20085;-82
2022/10/04 12:03:09;;;;;;;40.22;37.92;;;;;;;19.39;59.25;101438.72;6097173;23;20556;-82
2022/10/04 12:06:28;;;;;;;;;;;;;;;;;;;;;
2022/10/04 12:09:32;;;;;;;36.35;34.05;;;;;;;19.01;65.01;101442.19;6071969;23;20128;-82
2022/10/04 12:12:42;;;;;;;39.90;37.80;;;;;;;20.08;65.80;101444.53;6097847;23;20371;-83
2022/10/04 12:15:48;;;;;;;36.10;33.92;;;;;;;20.06;60.88;101441.28;6097158;23;20022;-83
2022/10/04 12:18:49;;;;;;;54.60;51.58;;;;;;;19.35;67.82;101448.38;6098280;23;20499;-83
2022/10/04 12:21:59;;;;;;;36.70;34.33;;;;;;;18.89;72.76;101447.66;6097549;23;20459;-83
2022/10/04 12:25:15;;;;;;;39.10;36.90;;;;;;;18.68;73.49;101451.84;6097859;23;20025;-82
2022/10/04 12:28:11;;;;;;;44.80;42.40;;;;;;;18.49;75.10;101449.34;6090603;23;20069;-83
2022/10/04 12:31:09;;;;;;;41.20;38.90;;;;;;;19.25;75.70;101435.59;6096886;23;20026;-82
2022/10/04 12:33:53;;;;;;;36.28;34.28;;;;;;;19.60;66.19;101437.97;6095313;23;20102;-83
2022/10/04 12:36:39;;;;;;;35.30;33.22;;;;;;;19.55;67.93;101432.53;6095288;23;20035;-82
2022/10/04 12:39:31;;;;;;;50.58;47.83;;;;;;;18.73;73.00;101447.41;6095076;23;20018;-82
2022/10/04 12:42:30;;;;;;;35.23;32.90;;;;;;;18.73;71.32;101435.81;6096858;23;20026;-82
2022/10/04 12:45:43;;;;;;;40.28;38.03;;;;;;;17.63;77.21;101434.94;6096191;23;20026;-83
2022/10/04 12:48:52;;;;;;;38.67;36.35;;;;;;;19.29;75.45;101425.94;6087991;23;20027;-82
2022/10/04 12:51:46;;;;;;;37.80;35.35;;;;;;;20.28;62.26;101443.97;6037775;23;20027;-83
2022/10/04 12:54:41;;;;;;;38.80;36.65;;;;;;;21.06;62.62;101443.66;6037991;23;20035;-82
2022/10/04 12:57:58;;;;;;;39.65;37.45;;;;;;;21.21;61.47;101440.22;6037530;23;20023;-83
2022/10/04 13:00:50;;;;;;;31.88;29.98;;;;;;;20.87;66.48;101458.59;5953695;24;20432;-82
2022/10/04 13:03:45;;;;;;;32.77;30.03;;;;;;;20.53;70.30;101448.84;5995526;23;20107;-82
2022/10/04 13:06:31;;;;;;;32.42;30.35;;;;;;;19.78;82.78;101441.47;6089981;23;20269;-84
2022/10/04 13:09:18;;;;;;;35.28;33.08;;;;;;;19.42;94.14;101444.44;6096526;23;20033;-83
2022/10/04 13:12:03;;;;;;;33.92;31.42;;;;;;;19.21;94.11;101448.72;6096832;23;20412;-82
2022/10/04 13:15:02;;;;;;;33.28;31.08;;;;;;;18.23;100.00;101447.22;6096610;23;20442;-82
2022/10/04 13:20:46;;;;;;;32.63;30.33;;;;;;;18.80;100.00;101455.31;6095208;23;20019;-83
2022/10/04 13:23:37;;;;;;;32.90;30.50;;;;;;;18.38;100.00;101450.22;6097111;23;20014;-83
2022/10/04 13:26:19;;;;;;;31.98;29.98;;;;;;;17.66;100.00;101450.59;6096628;23;20025;-82
2022/10/04 13:29:01;;;;;;;31.42;29.17;;;;;;;18.23;100.00;101450.72;6096600;23;20026;-82
2022/10/04 13:31:48;;;;;;;31.58;29.63;;;;;;;17.01;100.00;101462.25;6096745;23;20037;-83
2022/10/04 13:34:44;;;;;;;;;;;;;;;;;;;;;
2022/10/04 13:37:32;;;;;;;31.60;29.52;;;;;;;18.99;100.00;101445.94;6091875;23;20097;-83
2022/10/04 13:40:31;;;;;;;33.72;31.20;;;;;;;20.06;93.69;101449.38;6097018;23;20313;-84
2022/10/04 13:43:27;;;;;;;31.65;29.70;;;;;;;21.24;76.77;101447.81;6096385;23;20101;-82
2022/10/04 13:46:22;;;;;;;;;;;;;;;;;;;;;
2022/10/04 13:49:03;;;;;;;32.95;30.90;;;;;;;20.49;73.98;101463.06;6096750;23;20033;-83
2022/10/04 13:58:25;;;;;;;;;;;;;;;;;;;;;
2022/10/04 14:01:28;;;;;;;31.30;29.10;;;;;;;20.73;69.59;101467.13;6096550;23;20026;-82
2022/10/04 14:04:23;;;;;;;32.55;30.08;;;;;;;20.72;63.85;101470.88;6096890;23;20022;-83
2022/10/04 14:07:23;;;;;;;30.95;28.85;;;;;;;21.02;63.22;101469.53;6096484;23;20452;-83
2022/10/04 14:10:04;;;;;;;28.88;26.83;;;;;;;20.84;58.01;101468.00;6096995;23;20428;-82
2022/10/04 14:13:25;;;;;;;29.15;27.25;;;;;;;20.33;59.34;101457.50;6096678;23;20023;-82
2022/10/04 14:16:40;;;;;;;29.55;27.55;;;;;;;20.19;61.95;101464.34;6036798;23;20102;-83
2022/10/04 14:19:37;;;;;;;29.63;27.63;;;;;;;20.32;57.15;101465.84;5951628;23;20087;-82
2022/10/04 14:22:50;;;;;;;28.17;26.27;;;;;;;20.53;61.67;101459.63;6096875;23;20419;-82
2022/10/04 14:25:55;;;;;;;27.92;26.13;;;;;;;20.11;59.25;101472.88;6097202;23;20018;-83
2022/10/04 14:28:57;;;;;;;28.88;26.77;;;;;;;20.45;71.45;101468.13;6075763;23;20030;-84
2022/10/04 14:31:57;;;;;;;29.15;27.10;;;;;;;18.94;61.85;101461.19;6084397;23;20097;-82
2022/10/04 14:34:58;;;;;;;28.10;26.10;;;;;;;19.20;66.37;101473.19;6091317;23;20108;-84